sensor_id;sensor_type;location;lat;lon;timestamp;pressure;altitude;pressure_sealevel;temperature;humidity
78892;BME280;68368;51.728;5.248;2024-03-07T10:26:24;102371.38;;;11.20;57.63
78892;BME280;68368;51.728;5.248;2024-03-07T10:28:30;102373.64;;;11.15;55.37
78892;BME280;68368;51.728;5.248;2024-03-07T10:30:42;102368.85;;;11.03;54.65
78892;BME280;68368;51.728;5.248;2024-03-07T10:32:48;102366.52;;;11.00;55.38
78892;BME280;68368;51.728;5.248;2024-03-07T10:34:56;102367.95;;;11.01;55.70
78892;BME280;68368;51.728;5.248;2024-03-07T10:37:02;102362.05;;;10.99;55.81
78892;BME280;68368;51.728;5.248;2024-03-07T10:39:07;102358.85;;;10.98;55.87
78892;BME280;68368;51.728;5.248;2024-03-07T10:41:12;102352.80;;;10.99;55.59
78892;BME280;68368;51.728;5.248;2024-03-07T10:43:21;102354.20;;;10.96;55.81
78892;BME280;68368;51.728;5.248;2024-03-07T10:45:29;102350.67;;;10.97;56.47
78892;BME280;68368;51.728;5.248;2024-03-07T10:47:36;102354.30;;;11.05;57.41
78892;BME280;68368;51.728;5.248;2024-03-07T10:49:52;102350.64;;;11.11;56.71
78892;BME280;68368;51.728;5.248;2024-03-07T10:52:09;102356.86;;;11.09;55.45
78892;BME280;68368;51.728;5.248;2024-03-07T10:54:27;102353.83;;;11.09;55.70
78892;BME280;68368;51.728;5.248;2024-03-07T10:56:47;102349.61;;;11.12;56.10
78892;BME280;68368;51.728;5.248;2024-03-07T10:59:09;102350.55;;;11.18;54.78
78892;BME280;68368;51.728;5.248;2024-03-07T11:01:16;102348.33;;;11.25;54.65
78892;BME280;68368;51.728;5.248;2024-03-07T11:03:25;102350.63;;;11.25;53.25
78892;BME280;68368;51.728;5.248;2024-03-07T11:05:31;102342.57;;;11.19;54.10
78892;BME280;68368;51.728;5.248;2024-03-07T11:07:36;102351.75;;;11.14;53.44
78892;BME280;68368;51.728;5.248;2024-03-07T11:09:42;102346.84;;;11.05;53.50
78892;BME280;68368;51.728;5.248;2024-03-07T11:11:48;102339.42;;;11.08;54.09
78892;BME280;68368;51.728;5.248;2024-03-07T11:13:54;102336.84;;;11.14;54.82
78892;BME280;68368;51.728;5.248;2024-03-07T11:16:00;102334.36;;;11.16;54.30
78892;BME280;68368;51.728;5.248;2024-03-07T11:18:07;102330.80;;;11.16;54.26
78892;BME280;68368;51.728;5.248;2024-03-07T11:20:26;102330.65;;;11.18;54.38
78892;BME280;68368;51.728;5.248;2024-03-07T11:22:34;102325.48;;;11.17;53.32
78892;BME280;68368;51.728;5.248;2024-03-07T11:24:41;102325.57;;;11.09;52.42
78892;BME280;68368;51.728;5.248;2024-03-07T11:26:50;102324.91;;;10.98;51.21
78892;BME280;68368;51.728;5.248;2024-03-07T11:28:55;102326.92;;;10.88;52.52
78892;BME280;68368;51.728;5.248;2024-03-07T11:31:13;102320.27;;;10.81;52.14
78892;BME280;68368;51.728;5.248;2024-03-07T11:33:21;102324.70;;;10.81;53.07
78892;BME280;68368;51.728;5.248;2024-03-07T11:35:34;102317.66;;;10.86;53.00
78892;BME280;68368;51.728;5.248;2024-03-07T11:37:43;102314.81;;;10.85;52.23
78892;BME280;68368;51.728;5.248;2024-03-07T11:39:49;102309.70;;;10.90;52.40
78892;BME280;68368;51.728;5.248;2024-03-07T11:41:55;102301.41;;;10.94;52.87
78892;BME280;68368;51.728;5.248;2024-03-07T11:44:01;102299.92;;;11.04;52.26
78892;BME280;68368;51.728;5.248;2024-03-07T11:46:07;102299.14;;;11.13;52.30
78892;BME280;68368;51.728;5.248;2024-03-07T11:48:13;102291.63;;;11.26;53.05
78892;BME280;68368;51.728;5.248;2024-03-07T11:50:18;102284.03;;;11.30;51.92
78892;BME280;68368;51.728;5.248;2024-03-07T11:52:23;102285.98;;;11.30;51.82
78892;BME280;68368;51.728;5.248;2024-03-07T11:54:28;102274.92;;;11.26;50.46
78892;BME280;68368;51.728;5.248;2024-03-07T11:56:33;102279.73;;;11.26;50.77
78892;BME280;68368;51.728;5.248;2024-03-07T11:58:40;102275.05;;;11.22;50.95
78892;BME280;68368;51.728;5.248;2024-03-07T12:00:47;102269.60;;;11.27;51.69
78892;BME280;68368;51.728;5.248;2024-03-07T12:02:55;102264.98;;;11.28;51.12
78892;BME280;68368;51.728;5.248;2024-03-07T12:05:03;102259.02;;;11.37;51.93
78892;BME280;68368;51.728;5.248;2024-03-07T12:07:08;102260.44;;;11.55;51.36
78892;BME280;68368;51.728;5.248;2024-03-07T12:09:13;102263.09;;;11.73;51.15
78892;BME280;68368;51.728;5.248;2024-03-07T12:11:18;102263.69;;;11.81;49.94
78892;BME280;68368;51.728;5.248;2024-03-07T12:13:24;102258.15;;;11.80;50.52
78892;BME280;68368;51.728;5.248;2024-03-07T12:15:29;102259.01;;;11.75;50.25
78892;BME280;68368;51.728;5.248;2024-03-07T12:17:34;102255.80;;;11.74;50.92
78892;BME280;68368;51.728;5.248;2024-03-07T12:19:40;102253.36;;;11.81;51.85
78892;BME280;68368;51.728;5.248;2024-03-07T12:21:45;102253.90;;;11.83;50.84
78892;BME280;68368;51.728;5.248;2024-03-07T12:23:51;102250.66;;;11.76;50.57
78892;BME280;68368;51.728;5.248;2024-03-07T12:26:04;102250.27;;;11.75;50.86
78892;BME280;68368;51.728;5.248;2024-03-07T12:28:11;102249.73;;;11.72;51.37
78892;BME280;68368;51.728;5.248;2024-03-07T12:30:19;102252.71;;;11.67;51.16
78892;BME280;68368;51.728;5.248;2024-03-07T12:32:24;102245.13;;;11.54;50.68
78892;BME280;68368;51.728;5.248;2024-03-07T12:34:29;102235.11;;;11.46;51.41
78892;BME280;68368;51.728;5.248;2024-03-07T12:36:35;102234.86;;;11.38;51.80
78892;BME280;68368;51.728;5.248;2024-03-07T12:38:40;102229.41;;;11.26;52.46
78892;BME280;68368;51.728;5.248;2024-03-07T12:40:46;102227.61;;;11.05;53.78
78892;BME280;68368;51.728;5.248;2024-03-07T12:42:54;102215.99;;;10.83;53.75
78892;BME280;68368;51.728;5.248;2024-03-07T12:44:59;102215.23;;;10.61;54.29
78892;BME280;68368;51.728;5.248;2024-03-07T12:47:05;102215.34;;;10.42;54.71
78892;BME280;68368;51.728;5.248;2024-03-07T12:49:09;102216.29;;;10.33;55.37
78892;BME280;68368;51.728;5.248;2024-03-07T12:51:14;102210.96;;;10.33;55.40
78892;BME280;68368;51.728;5.248;2024-03-07T12:53:19;102206.27;;;10.39;55.89
78892;BME280;68368;51.728;5.248;2024-03-07T12:55:24;102192.77;;;10.54;56.13
78892;BME280;68368;51.728;5.248;2024-03-07T12:57:29;102197.74;;;10.70;55.32
78892;BME280;68368;51.728;5.248;2024-03-07T12:59:34;102194.89;;;10.84;55.24
78892;BME280;68368;51.728;5.248;2024-03-07T13:01:40;102195.66;;;10.92;54.97
78892;BME280;68368;51.728;5.248;2024-03-07T13:03:45;102194.65;;;10.95;54.32
78892;BME280;68368;51.728;5.248;2024-03-07T13:05:51;102195.52;;;10.95;54.19
78892;BME280;68368;51.728;5.248;2024-03-07T13:07:56;102190.55;;;10.96;54.28
78892;BME280;68368;51.728;5.248;2024-03-07T13:10:02;102193.76;;;10.96;54.06
78892;BME280;68368;51.728;5.248;2024-03-07T13:12:08;102188.40;;;10.93;53.54
78892;BME280;68368;51.728;5.248;2024-03-07T13:14:14;102185.27;;;10.83;53.50
78892;BME280;68368;51.728;5.248;2024-03-07T13:16:19;102181.08;;;10.73;53.96
78892;BME280;68368;51.728;5.248;2024-03-07T13:18:29;102181.20;;;10.67;55.06
78892;BME280;68368;51.728;5.248;2024-03-07T13:20:34;102177.56;;;10.60;55.01
78892;BME280;68368;51.728;5.248;2024-03-07T13:22:42;102175.03;;;10.56;55.16
78892;BME280;68368;51.728;5.248;2024-03-07T13:24:47;102180.58;;;10.59;54.96
78892;BME280;68368;51.728;5.248;2024-03-07T13:26:52;102175.72;;;10.69;54.65
78892;BME280;68368;51.728;5.248;2024-03-07T13:28:59;102176.24;;;10.69;54.10
78892;BME280;68368;51.728;5.248;2024-03-07T13:31:05;102173.39;;;10.68;54.40
78892;BME280;68368;51.728;5.248;2024-03-07T13:33:11;102168.64;;;10.72;53.87
78892;BME280;68368;51.728;5.248;2024-03-07T13:35:16;102166.88;;;10.74;54.31
78892;BME280;68368;51.728;5.248;2024-03-07T13:37:21;102170.17;;;10.83;55.14
78892;BME280;68368;51.728;5.248;2024-03-07T13:39:26;102170.64;;;10.94;55.31
78892;BME280;68368;51.728;5.248;2024-03-07T13:41:32;102170.50;;;10.98;54.55
78892;BME280;68368;51.728;5.248;2024-03-07T13:43:37;102164.41;;;10.92;53.82
78892;BME280;68368;51.728;5.248;2024-03-07T13:45:44;102159.69;;;10.82;54.20
78892;BME280;68368;51.728;5.248;2024-03-07T13:47:49;102161.73;;;10.73;54.23
78892;BME280;68368;51.728;5.248;2024-03-07T13:49:55;102158.66;;;10.68;54.27
78892;BME280;68368;51.728;5.248;2024-03-07T13:52:00;102154.73;;;10.68;54.14
78892;BME280;68368;51.728;5.248;2024-03-07T13:54:05;102149.80;;;10.70;54.17
78892;BME280;68368;51.728;5.248;2024-03-07T13:56:42;102148.27;;;10.77;54.18
78892;BME280;68368;51.728;5.248;2024-03-07T13:59:25;102141.61;;;10.87;54.54
78892;BME280;68368;51.728;5.248;2024-03-07T14:01:43;102140.80;;;10.95;54.33
78892;BME280;68368;51.728;5.248;2024-03-07T14:07:05;102137.66;;;11.00;55.16
78892;BME280;68368;51.728;5.248;2024-03-07T14:09:43;102136.99;;;11.06;54.91
78892;BME280;68368;51.728;5.248;2024-03-07T14:12:34;102137.41;;;11.13;54.76
78892;BME280;68368;51.728;5.248;2024-03-07T14:23:41;102133.59;;;10.66;55.19
78892;BME280;68368;51.728;5.248;2024-03-07T14:26:25;102128.77;;;10.47;58.16
78892;BME280;68368;51.728;5.248;2024-03-07T14:29:02;102125.34;;;10.28;60.17
78892;BME280;68368;51.728;5.248;2024-03-07T14:31:12;102118.80;;;10.16;61.09
78892;BME280;68368;51.728;5.248;2024-03-07T14:33:19;102118.89;;;10.10;61.87
78892;BME280;68368;51.728;5.248;2024-03-07T14:35:34;102117.80;;;10.07;62.41
78892;BME280;68368;51.728;5.248;2024-03-07T14:37:51;102119.99;;;9.98;62.98
78892;BME280;68368;51.728;5.248;2024-03-07T14:40:08;102122.92;;;9.92;63.64
78892;BME280;68368;51.728;5.248;2024-03-07T14:42:15;102117.30;;;9.83;64.13
78892;BME280;68368;51.728;5.248;2024-03-07T14:44:22;102118.46;;;9.77;64.27
78892;BME280;68368;51.728;5.248;2024-03-07T14:46:27;102119.61;;;9.70;64.39
78892;BME280;68368;51.728;5.248;2024-03-07T14:48:32;102114.85;;;9.60;64.62
78892;BME280;68368;51.728;5.248;2024-03-07T14:50:42;102118.48;;;9.52;65.02
78892;BME280;68368;51.728;5.248;2024-03-07T14:52:48;102114.66;;;9.45;65.33
78892;BME280;68368;51.728;5.248;2024-03-07T14:54:54;102107.99;;;9.40;65.77
78892;BME280;68368;51.728;5.248;2024-03-07T14:56:59;102105.16;;;9.39;66.49
78892;BME280;68368;51.728;5.248;2024-03-07T14:59:04;102109.83;;;9.44;66.94
78892;BME280;68368;51.728;5.248;2024-03-07T15:01:09;102103.36;;;9.49;66.45
78892;BME280;68368;51.728;5.248;2024-03-07T15:03:15;102100.05;;;9.54;66.41
78892;BME280;68368;51.728;5.248;2024-03-07T15:05:21;102094.39;;;9.53;66.32
78892;BME280;68368;51.728;5.248;2024-03-07T15:07:26;102093.10;;;9.51;66.17
78892;BME280;68368;51.728;5.248;2024-03-07T15:09:31;102090.91;;;9.47;65.77
78892;BME280;68368;51.728;5.248;2024-03-07T15:11:37;102091.24;;;9.44;66.03
78892;BME280;68368;51.728;5.248;2024-03-07T15:13:44;102090.56;;;9.47;66.38
78892;BME280;68368;51.728;5.248;2024-03-07T15:15:50;102086.14;;;9.47;66.04
78892;BME280;68368;51.728;5.248;2024-03-07T15:17:55;102082.71;;;9.43;65.70
78892;BME280;68368;51.728;5.248;2024-03-07T15:20:00;102082.13;;;9.40;65.94
78892;BME280;68368;51.728;5.248;2024-03-07T15:22:05;102078.20;;;9.39;66.50
78892;BME280;68368;51.728;5.248;2024-03-07T15:24:11;102077.70;;;9.40;66.83
78892;BME280;68368;51.728;5.248;2024-03-07T15:26:16;102076.64;;;9.41;66.53
78892;BME280;68368;51.728;5.248;2024-03-07T15:28:21;102077.38;;;9.43;66.91
78892;BME280;68368;51.728;5.248;2024-03-07T15:30:27;102067.50;;;9.46;66.92
78892;BME280;68368;51.728;5.248;2024-03-07T15:32:32;102067.87;;;9.46;66.50
78892;BME280;68368;51.728;5.248;2024-03-07T15:34:38;102067.50;;;9.45;66.78
78892;BME280;68368;51.728;5.248;2024-03-07T15:36:43;102066.40;;;9.43;66.57
78892;BME280;68368;51.728;5.248;2024-03-07T15:38:48;102064.77;;;9.42;67.13
78892;BME280;68368;51.728;5.248;2024-03-07T15:41:01;102061.61;;;9.43;67.76
78892;BME280;68368;51.728;5.248;2024-03-07T15:43:07;102060.76;;;9.45;67.75
78892;BME280;68368;51.728;5.248;2024-03-07T15:45:17;102054.80;;;9.50;67.55
78892;BME280;68368;51.728;5.248;2024-03-07T15:47:23;102047.92;;;9.53;66.93
78892;BME280;68368;51.728;5.248;2024-03-07T15:49:28;102044.01;;;9.51;66.66
78892;BME280;68368;51.728;5.248;2024-03-07T15:51:33;102043.79;;;9.48;67.15
78892;BME280;68368;51.728;5.248;2024-03-07T15:53:38;102042.48;;;9.44;67.53
78892;BME280;68368;51.728;5.248;2024-03-07T15:55:43;102038.16;;;9.39;67.62
78892;BME280;68368;51.728;5.248;2024-03-07T15:57:51;102031.31;;;9.31;67.49
78892;BME280;68368;51.728;5.248;2024-03-07T15:59:57;102031.71;;;9.22;67.74
78892;BME280;68368;51.728;5.248;2024-03-07T16:02:02;102033.32;;;9.11;68.21
78892;BME280;68368;51.728;5.248;2024-03-07T16:04:07;102031.20;;;9.00;68.62
78892;BME280;68368;51.728;5.248;2024-03-07T16:06:13;102028.59;;;8.91;68.88
78892;BME280;68368;51.728;5.248;2024-03-07T16:08:18;102032.70;;;8.82;69.32
78892;BME280;68368;51.728;5.248;2024-03-07T16:10:25;102030.77;;;8.73;69.78
78892;BME280;68368;51.728;5.248;2024-03-07T16:12:30;102027.60;;;8.63;70.05
78892;BME280;68368;51.728;5.248;2024-03-07T16:14:35;102028.14;;;8.53;69.89
78892;BME280;68368;51.728;5.248;2024-03-07T16:16:43;102029.23;;;8.45;70.11
78892;BME280;68368;51.728;5.248;2024-03-07T16:18:48;102022.88;;;8.36;70.40
78892;BME280;68368;51.728;5.248;2024-03-07T16:20:53;102019.20;;;8.30;70.70
78892;BME280;68368;51.728;5.248;2024-03-07T16:22:59;102020.36;;;8.26;71.06
78892;BME280;68368;51.728;5.248;2024-03-07T16:25:06;102017.28;;;8.22;71.24
78892;BME280;68368;51.728;5.248;2024-03-07T16:27:11;102016.92;;;8.21;71.35
78892;BME280;68368;51.728;5.248;2024-03-07T16:29:16;102010.33;;;8.19;71.74
78892;BME280;68368;51.728;5.248;2024-03-07T16:31:22;102014.89;;;8.16;71.50
78892;BME280;68368;51.728;5.248;2024-03-07T16:33:27;102010.80;;;8.14;71.66
78892;BME280;68368;51.728;5.248;2024-03-07T16:35:33;102011.14;;;8.14;71.82
78892;BME280;68368;51.728;5.248;2024-03-07T16:37:41;102007.77;;;8.14;71.82
78892;BME280;68368;51.728;5.248;2024-03-07T16:39:47;102006.36;;;8.15;71.56
78892;BME280;68368;51.728;5.248;2024-03-07T16:41:52;102003.02;;;8.15;71.93
78892;BME280;68368;51.728;5.248;2024-03-07T16:43:57;101994.15;;;8.14;71.98
78892;BME280;68368;51.728;5.248;2024-03-07T16:46:02;101997.52;;;8.14;72.15
78892;BME280;68368;51.728;5.248;2024-03-07T16:48:09;101994.29;;;8.12;72.19
78892;BME280;68368;51.728;5.248;2024-03-07T16:50:15;101990.91;;;8.11;72.31
78892;BME280;68368;51.728;5.248;2024-03-07T16:52:22;101994.41;;;8.10;72.70
78892;BME280;68368;51.728;5.248;2024-03-07T16:54:27;101995.23;;;8.06;73.04
78892;BME280;68368;51.728;5.248;2024-03-07T16:56:37;101996.79;;;8.04;73.37
78892;BME280;68368;51.728;5.248;2024-03-07T16:58:43;101990.90;;;8.02;73.77
78892;BME280;68368;51.728;5.248;2024-03-07T17:00:51;101992.43;;;7.98;73.96
78892;BME280;68368;51.728;5.248;2024-03-07T17:02:56;101993.77;;;7.94;74.21
78892;BME280;68368;51.728;5.248;2024-03-07T17:05:01;101993.70;;;7.90;74.53
78892;BME280;68368;51.728;5.248;2024-03-07T17:07:07;101988.33;;;7.87;74.88
78892;BME280;68368;51.728;5.248;2024-03-07T17:09:12;101988.06;;;7.83;75.57
78892;BME280;68368;51.728;5.248;2024-03-07T17:11:17;101991.16;;;7.79;76.31
78892;BME280;68368;51.728;5.248;2024-03-07T17:13:22;101989.09;;;7.72;76.84
78892;BME280;68368;51.728;5.248;2024-03-07T17:15:27;101988.63;;;7.66;77.46
78892;BME280;68368;51.728;5.248;2024-03-07T17:17:32;101986.55;;;7.60;77.99
78892;BME280;68368;51.728;5.248;2024-03-07T21:05:41;101944.73;;;3.85;98.41
78892;BME280;68368;51.728;5.248;2024-03-07T21:07:46;101951.31;;;3.82;98.51
78892;BME280;68368;51.728;5.248;2024-03-07T21:09:51;101946.30;;;3.80;98.93
78892;BME280;68368;51.728;5.248;2024-03-07T21:11:57;101946.09;;;3.79;99.15
78892;BME280;68368;51.728;5.248;2024-03-07T21:14:02;101940.92;;;3.76;99.13
78892;BME280;68368;51.728;5.248;2024-03-07T21:16:09;101938.77;;;3.75;99.78
78892;BME280;68368;51.728;5.248;2024-03-07T21:18:14;101936.80;;;3.74;99.70
78892;BME280;68368;51.728;5.248;2024-03-07T21:20:19;101937.95;;;3.72;99.81
78892;BME280;68368;51.728;5.248;2024-03-07T21:22:24;101938.20;;;3.70;99.79
78892;BME280;68368;51.728;5.248;2024-03-07T21:24:30;101938.86;;;3.68;99.91
78892;BME280;68368;51.728;5.248;2024-03-07T21:26:35;101933.02;;;3.67;99.81
78892;BME280;68368;51.728;5.248;2024-03-07T21:28:40;101932.89;;;3.63;100.00
78892;BME280;68368;51.728;5.248;2024-03-07T21:30:46;101929.47;;;3.60;100.00
78892;BME280;68368;51.728;5.248;2024-03-07T21:32:51;101928.20;;;3.60;100.00
78892;BME280;68368;51.728;5.248;2024-03-07T21:34:57;101929.23;;;3.58;99.93
78892;BME280;68368;51.728;5.248;2024-03-07T21:37:03;101932.84;;;3.57;99.92
78892;BME280;68368;51.728;5.248;2024-03-07T21:39:08;101931.70;;;3.55;100.00
78892;BME280;68368;51.728;5.248;2024-03-07T21:41:13;101929.93;;;3.54;100.00
78892;BME280;68368;51.728;5.248;2024-03-07T21:43:18;101926.52;;;3.52;100.00
78892;BME280;68368;51.728;5.248;2024-03-07T21:45:24;101926.66;;;3.51;100.00
78892;BME280;68368;51.728;5.248;2024-03-07T21:47:29;101919.91;;;3.49;99.94
78892;BME280;68368;51.728;5.248;2024-03-07T21:49:34;101925.64;;;3.47;99.94
78892;BME280;68368;51.728;5.248;2024-03-07T21:51:39;101921.55;;;3.46;99.99
78892;BME280;68368;51.728;5.248;2024-03-07T21:53:51;101921.63;;;3.43;99.94
78892;BME280;68368;51.728;5.248;2024-03-07T21:55:56;101919.23;;;3.39;99.81
78892;BME280;68368;51.728;5.248;2024-03-07T21:58:02;101919.04;;;3.39;99.95
78892;BME280;68368;51.728;5.248;2024-03-07T22:00:14;101918.63;;;3.37;99.99
78892;BME280;68368;51.728;5.248;2024-03-07T22:02:19;101917.66;;;3.35;99.82
78892;BME280;68368;51.728;5.248;2024-03-07T22:04:24;101917.04;;;3.32;99.91
78892;BME280;68368;51.728;5.248;2024-03-07T22:06:29;101908.35;;;3.30;99.85
78892;BME280;68368;51.728;5.248;2024-03-07T22:08:34;101906.16;;;3.28;99.80
78892;BME280;68368;51.728;5.248;2024-03-07T22:10:39;101911.41;;;3.27;99.76
78892;BME280;68368;51.728;5.248;2024-03-07T22:12:45;101911.69;;;3.25;99.37
78892;BME280;68368;51.728;5.248;2024-03-07T22:14:51;101906.54;;;3.24;99.45
78892;BME280;68368;51.728;5.248;2024-03-07T22:16:56;101904.54;;;3.22;99.38
78892;BME280;68368;51.728;5.248;2024-03-07T22:19:01;101903.91;;;3.19;99.25
78892;BME280;68368;51.728;5.248;2024-03-07T22:21:07;101904.41;;;3.18;99.19
78892;BME280;68368;51.728;5.248;2024-03-07T22:23:12;101900.48;;;3.16;99.28
78892;BME280;68368;51.728;5.248;2024-03-07T22:25:18;101898.34;;;3.15;99.19
78892;BME280;68368;51.728;5.248;2024-03-07T22:27:24;101902.69;;;3.15;99.15
78892;BME280;68368;51.728;5.248;2024-03-07T22:29:29;101898.95;;;3.13;98.65
78892;BME280;68368;51.728;5.248;2024-03-07T22:31:37;101896.69;;;3.14;98.63
78892;BME280;68368;51.728;5.248;2024-03-07T22:33:43;101899.11;;;3.13;98.46
78892;BME280;68368;51.728;5.248;2024-03-07T22:35:48;101899.92;;;3.11;98.31
78892;BME280;68368;51.728;5.248;2024-03-07T22:37:53;101898.09;;;3.09;98.48
78892;BME280;68368;51.728;5.248;2024-03-07T22:40:02;101894.48;;;3.06;98.07
78892;BME280;68368;51.728;5.248;2024-03-07T22:42:07;101890.74;;;3.05;97.95
78892;BME280;68368;51.728;5.248;2024-03-07T22:44:12;101890.55;;;3.05;98.12
78892;BME280;68368;51.728;5.248;2024-03-07T22:46:17;101888.26;;;3.03;97.91
78892;BME280;68368;51.728;5.248;2024-03-07T22:48:22;101888.35;;;3.02;97.83
78892;BME280;68368;51.728;5.248;2024-03-07T22:50:28;101883.94;;;3.01;98.06
78892;BME280;68368;51.728;5.248;2024-03-07T22:52:33;101884.80;;;3.01;97.79
78892;BME280;68368;51.728;5.248;2024-03-07T22:54:39;101876.19;;;3.00;97.63
78892;BME280;68368;51.728;5.248;2024-03-07T22:56:44;101876.84;;;2.99;97.39
78892;BME280;68368;51.728;5.248;2024-03-07T22:58:49;101877.44;;;2.96;97.22
78892;BME280;68368;51.728;5.248;2024-03-07T23:00:54;101877.02;;;2.94;97.41
78892;BME280;68368;51.728;5.248;2024-03-07T23:02:59;101871.84;;;2.91;97.56
78892;BME280;68368;51.728;5.248;2024-03-07T23:05:05;101866.83;;;2.89;97.34
78892;BME280;68368;51.728;5.248;2024-03-07T23:07:10;101865.54;;;2.88;97.00
78892;BME280;68368;51.728;5.248;2024-03-07T23:09:15;101865.14;;;2.86;97.24
78892;BME280;68368;51.728;5.248;2024-03-07T23:11:20;101867.20;;;2.84;97.14
78892;BME280;68368;51.728;5.248;2024-03-07T23:13:25;101868.34;;;2.83;97.03
78892;BME280;68368;51.728;5.248;2024-03-07T23:15:32;101871.73;;;2.80;97.17
78892;BME280;68368;51.728;5.248;2024-03-07T23:17:39;101869.01;;;2.77;97.03
78892;BME280;68368;51.728;5.248;2024-03-07T23:19:45;101859.44;;;2.75;96.89
78892;BME280;68368;51.728;5.248;2024-03-07T23:21:51;101856.17;;;2.72;97.21
78892;BME280;68368;51.728;5.248;2024-03-07T23:23:56;101853.63;;;2.69;96.94
78892;BME280;68368;51.728;5.248;2024-03-07T23:26:03;101855.14;;;2.67;97.15
78892;BME280;68368;51.728;5.248;2024-03-07T23:28:08;101850.86;;;2.65;96.92
78892;BME280;68368;51.728;5.248;2024-03-07T23:30:15;101848.16;;;2.63;97.55
78892;BME280;68368;51.728;5.248;2024-03-07T23:32:20;101849.14;;;2.62;97.09
78892;BME280;68368;51.728;5.248;2024-03-07T23:34:25;101845.58;;;2.60;97.27
78892;BME280;68368;51.728;5.248;2024-03-07T23:36:30;101845.00;;;2.59;97.16
78892;BME280;68368;51.728;5.248;2024-03-07T23:38:36;101842.14;;;2.58;97.56
78892;BME280;68368;51.728;5.248;2024-03-07T23:40:42;101843.17;;;2.57;97.18
78892;BME280;68368;51.728;5.248;2024-03-07T23:42:48;101838.70;;;2.55;97.35
78892;BME280;68368;51.728;5.248;2024-03-07T23:44:53;101844.46;;;2.54;97.03
78892;BME280;68368;51.728;5.248;2024-03-07T23:46:58;101840.56;;;2.53;97.03
78892;BME280;68368;51.728;5.248;2024-03-07T23:49:04;101836.32;;;2.52;97.05
78892;BME280;68368;51.728;5.248;2024-03-07T23:51:09;101835.16;;;2.49;96.76
78892;BME280;68368;51.728;5.248;2024-03-07T23:53:15;101830.22;;;2.48;96.63
78892;BME280;68368;51.728;5.248;2024-03-07T23:55:21;101831.88;;;2.46;97.00
78892;BME280;68368;51.728;5.248;2024-03-07T23:57:26;101830.02;;;2.43;96.90
78892;BME280;68368;51.728;5.248;2024-03-07T23:59:31;101823.79;;;2.41;96.81
